Aeroporto :
LOGIN :

Iscrizione | Disclaimer

   EN    FR    IT 

 










Sommario :    VFR   VFR Marginale   IFR   IFR Intensivo   IFR Molto Intensivo
Visibilità : 
Base nubi : 
>= 8 km
>= 3000ft
5 / 8 km
1000 / 3000 ft
1500m / 5 km
500 / 1000 ft
800 / 1500m
200 / 500 ft
< 800m
< 200 ft
Simboli :   Temporali  Nebbia  Neve Forte  Precipitazioni Forti  Vento > 20 kt
SIGMETs :   Varie  Temporali  Ghiacco  Turbolenza  Onda orograficha  Ceneri Vulcaniche






- Altitudine del aeroporto : 26 ft
- Codice IATA : SYY


EGPO - Stornoway

ULTIMO METAR :
  • 191820Z 21010KT 9999 -RA FEW008 SCT012 BKN023 09/08 Q0989

METARs OBSOLETI :
  • 191750Z 20013KT 9999 -RA FEW008 SCT012 BKN018 09/08 Q0989
  • 191720Z 20020KT 9000 -RA BKN006 BKN011 BKN020 09/08 Q0989 RERA
  • 191650Z 19024KT 6000 RA BKN006 BKN011 08/07 Q0989
  • 191620Z 18027G37KT 6000 RA SCT006 BKN009 07/07 Q0990
  • 191550Z 17026KT 5000 -RADZ SCT005 BKN009 07/06 Q0990

TAF TAF EGPO
Valido dal 19 a 18 ore il 20 a 03 ore UTC


191657Z 1918/2003 18022G35KT 9999 FEW006 SCT015
BECMG 1918/1920 24015G25KT
TEMPO 1918/1919 19030G45KT 6000 RA BKN009
PROB30
TEMPO 1918/1919 3000 RADZ BKN004
PROB40
TEMPO 1921/2003 25022G35KT 5000 SHRA SHGS BKN010CB
ATIS : +44 1851 707 444



MetMap, La meteo Aeronautica in un colpo d'occhio ! - Copyright ORBIFLY Dicembre 2007 - Disclaimer

ORBIFLY MET'MAP TEAM :

Programmazione e sviluppo : Alexandra Zaïnal
Concezione : Baudouin d'Aumeries
Aiuto per la programmazione : Marc-Olivier Méhu
Supporto tecnico e logistico : Manuel Goepfert
Aiuto per la traduzione : Arnaldo La Scala

Contatto : metmap@orbifly.com




FONTI E CREDITI :

   NOAA